WetterOnline ( https://www.wetteronline.at )

Wetter aktuell Brocken

Aktuelles Wetter: Brocken (1141m)

6-stündlich | Neueste Meldungen
Ortszeit Temperatur Wetter
So, 26.05. 14:00 14.2° C wolkig
So, 26.05. 8:00 12.4° C wolkenlos
So, 26.05. 2:00 10.4° C bewölkt
Sa, 25.05. 20:00 10.1° C leichter Regen
Sa, 25.05. 14:00 13.4° C bewölkt
Sa, 25.05. 8:00 9.1° C Nebel
Sa, 25.05. 2:00 8.6° C Nebel
Fr, 24.05. 20:00 9.5° C bedeckt
Ortszeit Temperatur Wetter
So, 26.05. 15:30 13.9° C wolkig
So, 26.05. 15:20 13.9° C wolkig
So, 26.05. 15:10 14.4° C wolkig
So, 26.05. 15:00 14.5° C leicht bewölkt
So, 26.05. 14:50 14.5° C leicht bewölkt
So, 26.05. 14:40 14.6° C leicht bewölkt
So, 26.05. 14:30 14.7° C fast wolkenlos
So, 26.05. 14:00 14.2° C wolkig
So, 26.05. 13:30 12.8° C wolkig
So, 26.05. 13:00 13.8° C wolkig
So, 26.05. 12:30 14.1° C wolkenlos
Ortszeit Relative Feuchte Sichtweite
So, 26.05. 14:00 58% 65 km
So, 26.05. 8:00 79% 45 km
So, 26.05. 2:00 82% >70 km
Sa, 25.05. 20:00 76% 22 km
Sa, 25.05. 14:00 71% >70 km
Sa, 25.05. 8:00 95% 100 m
Sa, 25.05. 2:00 98% <100 m
Fr, 24.05. 20:00 87% 45 km
Ortszeit Relative Feuchte Sichtweite
So, 26.05. 15:30 68% 60 km
So, 26.05. 15:20 68% -
So, 26.05. 15:10 65% -
So, 26.05. 15:00 64% >70 km
So, 26.05. 14:50 64% -
So, 26.05. 14:40 59% -
So, 26.05. 14:30 59% >70 km
So, 26.05. 14:00 58% 65 km
So, 26.05. 13:30 69% >70 km
So, 26.05. 13:00 61% >70 km
So, 26.05. 12:30 61% >70 km
Ortszeit Niederschlagsmenge Niederschlagsart
So, 26.05. 14:00 0.0 l/m2 in 6 Std. -
So, 26.05. 8:00 0.2 l/m2 in 12 Std. -
So, 26.05. 2:00 0.2 l/m2 in 6 Std. Regen
Sa, 25.05. 20:00 21 l/m2 in 12 Std. Regen
Sa, 25.05. 14:00 0.0 l/m2 in 6 Std. -
Sa, 25.05. 8:00 0.1 l/m2 in 12 Std. -
Sa, 25.05. 2:00 0.1 l/m2 in 6 Std. Regen
Fr, 24.05. 20:00 0.5 l/m2 in 12 Std. Regen
Ortszeit Niederschlagsmenge Niederschlagsart
So, 26.05. 15:30 0.0 l/m2 in 30 Min -
So, 26.05. 15:20 keine Meldung -
So, 26.05. 15:10 keine Meldung -
So, 26.05. 15:00 0.0 l/m2 in 1 Std. -
So, 26.05. 14:50 keine Meldung -
So, 26.05. 14:40 keine Meldung -
So, 26.05. 14:30 0.0 l/m2 in 30 Min -
So, 26.05. 14:00 0.0 l/m2 in 1 Std. -
So, 26.05. 13:30 0.0 l/m2 in 30 Min -
So, 26.05. 13:00 0.0 l/m2 in 1 Std. -
So, 26.05. 12:30 0.0 l/m2 in 30 Min -
Ortszeit Stärke Spitze Richtung
km/h Bft. km/h Grad Sektor
So, 26.05. 14:00 22 4 36 170° S
So, 26.05. 8:00 11 2 14 130° SO
So, 26.05. 2:00 4 1 14 230° SW
Sa, 25.05. 20:00 9 2 28 20° N
Sa, 25.05. 14:00 13 3 24 210° SW
Sa, 25.05. 8:00 9 2 30 210° SW
Sa, 25.05. 2:00 11 2 37 100° O
Fr, 24.05. 20:00 31 5 52 120° SO
Ortszeit Stärke Spitze Richtung
km/h Bft. km/h Grad Sektor
So, 26.05. 15:30 22 4 32 180° S
So, 26.05. 15:20 22 4 - 180° S
So, 26.05. 15:10 22 4 - 180° S
So, 26.05. 15:00 22 4 41 180° S
So, 26.05. 14:50 22 4 - 180° S
So, 26.05. 14:40 25 4 - 190° S
So, 26.05. 14:30 29 5 40 180° S
So, 26.05. 14:00 22 4 36 170° S
So, 26.05. 13:30 26 4 33 180° S
So, 26.05. 13:00 24 4 37 170° S
So, 26.05. 12:30 25 4 32 180° S
Ortszeit Untergrenze Bedeckung Gattung
total tief tief mittel hoch
So, 26.05. 14:00 630 m 5/8 4/8 - - -
So, 26.05. 8:00 - 0/8 0/8 - - -
So, 26.05. 2:00 1470 m 7/8 7/8 - - -
Sa, 25.05. 20:00 1350 m 8/8 8/8 - - -
Sa, 25.05. 14:00 450 m 7/8 7/8 - - -
Sa, 25.05. 8:00 <30 m 7/8 0/8 - - -
Sa, 25.05. 2:00 <30 m 8/8 0/8 - - -
Fr, 24.05. 20:00 <30 m 8/8 0/8 - - -
Ortszeit Bedeckungsgrad in Achtel und Wolkenuntergrenze
So, 26.05. 15:30 2(930m) 3(1380m) 6(1800m)
So, 26.05. 15:20 2(930m) 3(1380m) 6(1800m)
So, 26.05. 15:10 6
So, 26.05. 15:00 2(780m) 3(960m)
So, 26.05. 14:50 2(780m) 3(960m) 4(1500m)
So, 26.05. 14:40 2
So, 26.05. 14:30 1(1800m)
So, 26.05. 14:00 1(630m) 4(1800m) 5(3600m)
So, 26.05. 13:30 2(2100m) 7(3600m) 8(4200m)
So, 26.05. 13:00 2(840m) 5(6600m) 6(7800m)
So, 26.05. 12:30 keine Wolken
Ortszeit Stationsdruck (hPa) Tendenz (hPa in 3 Std.)
So, 26.05. 14:00 888 - 0,2
So, 26.05. 8:00 888 + 0,3
So, 26.05. 2:00 889 - 0,1
Sa, 25.05. 20:00 888 + 0,1
Sa, 25.05. 14:00 888 + 0,5
Sa, 25.05. 8:00 886 + 0,1
Sa, 25.05. 2:00 887 - 0,4
Fr, 24.05. 20:00 887 - 0,8
Ortszeit Stationsdruck (hPa) Tendenz (hPa in 3 Std.)
So, 26.05. 15:30 888 - 0,2
So, 26.05. 15:20 888 keine Meldung
So, 26.05. 15:10 888 keine Meldung
So, 26.05. 15:00 888 - 0,2
So, 26.05. 14:50 888 keine Meldung
So, 26.05. 14:40 888 keine Meldung
So, 26.05. 14:30 888 - 0,3
So, 26.05. 14:00 888 - 0,2
So, 26.05. 13:30 889 + 0,1
So, 26.05. 13:00 889 0,0
So, 26.05. 12:30 889 - 0,1
Ortszeit Schneehöhe (cm)
So, 26.05. 14:00 0
So, 26.05. 8:00 0
So, 26.05. 2:00 0
Sa, 25.05. 20:00 0
Sa, 25.05. 14:00 0
Sa, 25.05. 8:00 0
Sa, 25.05. 2:00 0
Fr, 24.05. 20:00 0
Ortszeit Schneehöhe (cm)
So, 26.05. 15:30 0
So, 26.05. 15:20 0
So, 26.05. 15:10 -
So, 26.05. 15:00 0
So, 26.05. 14:50 0
So, 26.05. 14:40 -
So, 26.05. 14:30 0
So, 26.05. 14:00 0
So, 26.05. 13:30 0
So, 26.05. 13:00 0
So, 26.05. 12:30 0
Link zu dieser Seite / Seite empfehlen

Das Wetter in ...